Time;durP1;ratioP1;P1;durP2;ratioP2;P2;SDS_P1;SDS_P2;PMS_P1;PMS_P2;Temp;Humidity;BMP_temperature;BMP_pressure;BME280_temperature;BME280_humidity;BME280_pressure;Samples;Min_cycle;Max_cycle;Signal;HPM_P1;HPM_P2
2023/09/05 00:01:54;;;;;;;3.70;3.40;;;18.70;99.90;;;;;;5072043;28;20202;-72
2023/09/05 00:04:20;;;;;;;3.93;3.63;;;18.70;99.90;;;;;;5072174;28;20680;-72
2023/09/05 00:06:49;;;;;;;4.87;3.93;;;18.70;99.90;;;;;;5072348;28;20632;-72
2023/09/05 00:09:17;;;;;;;3.93;3.63;;;18.70;99.90;;;;;;5072336;28;20274;-72
2023/09/05 00:11:44;;;;;;;6.83;4.00;;;18.70;99.90;;;;;;5071748;28;20166;-73
2023/09/05 00:14:10;;;;;;;3.83;3.30;;;18.70;99.90;;;;;;5070550;28;20202;-72
2023/09/05 00:16:36;;;;;;;3.30;3.00;;;18.70;99.90;;;;;;5071828;28;20162;-73
2023/09/05 00:19:02;;;;;;;3.70;3.40;;;18.70;99.90;;;;;;5072084;28;20219;-73
2023/09/05 00:21:28;;;;;;;3.50;3.20;;;18.70;99.90;;;;;;5071053;28;20166;-72
2023/09/05 00:23:53;;;;;;;6.73;3.33;;;18.70;99.90;;;;;;5071682;28;20170;-72
2023/09/05 00:26:19;;;;;;;3.43;3.20;;;18.80;99.90;;;;;;5071559;28;20198;-72
2023/09/05 00:28:45;;;;;;;3.20;2.90;;;18.70;99.90;;;;;;5072031;28;20245;-72
2023/09/05 00:31:11;;;;;;;4.27;3.30;;;18.80;99.90;;;;;;5071774;28;20170;-71
2023/09/05 00:33:37;;;;;;;4.90;3.10;;;18.80;99.90;;;;;;5071264;28;20174;-73
2023/09/05 00:36:04;;;;;;;3.50;3.20;;;18.80;99.90;;;;;;5071793;28;20186;-73
2023/09/05 00:38:29;;;;;;;3.57;3.33;;;18.80;99.90;;;;;;5071596;28;20170;-72
2023/09/05 00:40:56;;;;;;;3.60;3.30;;;18.80;99.90;;;;;;5071625;28;20182;-73
2023/09/05 00:43:21;;;;;;;3.37;3.03;;;18.80;99.90;;;;;;5071635;28;20174;-72
2023/09/05 00:45:49;;;;;;;4.23;3.40;;;18.80;99.90;;;;;;5071233;28;20662;-72
2023/09/05 00:48:16;;;;;;;3.50;3.27;;;18.80;99.90;;;;;;5071904;28;20636;-72
2023/09/05 00:50:42;;;;;;;3.20;3.00;;;18.90;99.90;;;;;;5071690;28;20200;-72
2023/09/05 00:53:08;;;;;;;3.60;3.30;;;18.80;99.90;;;;;;5071182;28;20167;-71
2023/09/05 00:55:34;;;;;;;3.77;2.90;;;18.80;99.90;;;;;;5071246;28;20236;-72
2023/09/05 00:58:00;;;;;;;7.97;3.07;;;18.80;99.90;;;;;;5071396;28;20178;-72
2023/09/05 01:00:26;;;;;;;3.30;2.97;;;18.80;99.90;;;;;;5071468;28;20174;-72
2023/09/05 01:02:53;;;;;;;3.67;3.37;;;18.80;99.90;;;;;;5071169;28;20253;-73
2023/09/05 01:05:24;;;;;;;3.70;3.40;;;18.80;99.90;;;;;;5071202;28;20552;-73
2023/09/05 01:08:21;;;;;;;3.77;3.47;;;18.80;99.90;;;;;;5071278;28;20162;-72
2023/09/05 01:10:59;;;;;;;3.50;3.20;;;18.80;99.90;;;;;;5071402;28;20368;-73
2023/09/05 01:13:31;;;;;;;3.27;3.07;;;18.80;99.90;;;;;;5070983;28;20223;-72
2023/09/05 01:15:56;;;;;;;3.40;3.10;;;18.80;99.90;;;;;;5071445;28;20209;-73
2023/09/05 01:18:22;;;;;;;3.80;3.50;;;18.80;99.90;;;;;;5071349;28;20217;-73
2023/09/05 01:21:03;;;;;;;4.30;3.47;;;18.80;99.90;;;;;;5070972;28;20170;-73
2023/09/05 01:23:37;;;;;;;3.53;2.90;;;18.70;99.90;;;;;;5070886;28;20173;-72
2023/09/05 01:26:03;;;;;;;3.47;3.17;;;18.60;99.90;;;;;;5071170;28;20723;-73
2023/09/05 01:28:30;;;;;;;3.33;3.13;;;18.60;99.90;;;;;;5074814;28;20193;-72
2023/09/05 01:30:56;;;;;;;4.93;3.53;;;18.50;99.90;;;;;;5075190;28;20537;-73
2023/09/05 01:33:21;;;;;;;3.50;3.30;;;18.50;99.90;;;;;;5075031;28;20265;-73
2023/09/05 01:35:47;;;;;;;8.00;3.93;;;18.40;99.90;;;;;;5074975;28;20194;-73
2023/09/05 01:38:13;;;;;;;5.53;4.00;;;18.30;99.90;;;;;;5075322;28;20561;-73
2023/09/05 01:40:39;;;;;;;3.53;3.23;;;18.20;99.90;;;;;;5073721;28;20178;-73
2023/09/05 01:43:05;;;;;;;4.13;3.87;;;18.10;99.90;;;;;;5074745;28;20178;-72
2023/09/05 01:45:30;;;;;;;5.27;4.67;;;18.00;99.90;;;;;;5074746;28;20617;-72
2023/09/05 01:47:56;;;;;;;5.20;4.20;;;18.00;99.90;;;;;;5074701;28;20170;-72
2023/09/05 01:50:22;;;;;;;4.47;4.00;;;17.90;99.90;;;;;;5074863;28;20173;-71
2023/09/05 01:52:47;;;;;;;3.50;3.20;;;17.90;99.90;;;;;;5074801;28;20170;-73
2023/09/05 01:55:13;;;;;;;3.90;3.60;;;17.90;99.90;;;;;;5074813;28;20198;-72
2023/09/05 01:57:39;;;;;;;4.37;3.87;;;17.90;99.90;;;;;;5074579;28;20174;-73
2023/09/05 02:00:05;;;;;;;4.27;3.97;;;17.90;99.90;;;;;;5074951;28;20171;-73
2023/09/05 02:02:30;;;;;;;3.57;3.27;;;17.90;99.90;;;;;;5074337;28;20197;-73
2023/09/05 02:04:56;;;;;;;5.43;4.60;;;17.80;99.90;;;;;;5074493;28;20687;-72
2023/09/05 02:07:21;;;;;;;4.20;3.80;;;17.80;99.90;;;;;;5074408;28;20170;-73
2023/09/05 02:09:47;;;;;;;4.00;3.70;;;17.90;99.90;;;;;;5074540;28;20206;-73
2023/09/05 02:12:14;;;;;;;4.03;3.73;;;17.90;99.90;;;;;;5074410;28;20170;-72
2023/09/05 02:14:47;;;;;;;4.30;3.60;;;17.90;99.90;;;;;;5074370;28;20189;-73
2023/09/05 02:17:16;;;;;;;3.70;3.30;;;17.90;99.90;;;;;;5074625;28;20604;-73
2023/09/05 02:19:41;;;;;;;4.40;3.50;;;17.90;99.90;;;;;;5074234;28;20170;-73
2023/09/05 02:22:07;;;;;;;3.90;3.60;;;17.90;99.90;;;;;;5074278;28;20544;-73
2023/09/05 02:24:33;;;;;;;4.20;3.80;;;17.90;99.90;;;;;;5074365;28;20210;-72
2023/09/05 02:26:58;;;;;;;3.70;3.40;;;17.90;99.90;;;;;;5074575;28;20312;-72
2023/09/05 02:29:26;;;;;;;4.30;3.43;;;17.90;99.90;;;;;;5074334;28;20175;-72
2023/09/05 02:31:52;;;;;;;3.77;3.47;;;17.90;99.90;;;;;;5074167;28;20245;-72
2023/09/05 02:34:17;;;;;;;3.70;3.40;;;17.80;99.90;;;;;;5074078;28;20740;-72
2023/09/05 02:36:43;;;;;;;3.70;3.30;;;17.80;99.90;;;;;;5074087;28;20173;-72
2023/09/05 02:39:08;;;;;;;3.50;3.20;;;17.80;99.90;;;;;;5074463;28;20257;-72
2023/09/05 02:41:34;;;;;;;4.00;3.70;;;17.80;99.90;;;;;;5073780;28;20189;-72
2023/09/05 02:44:00;;;;;;;3.57;3.23;;;17.80;99.90;;;;;;5074255;28;20185;-72
2023/09/05 02:46:26;;;;;;;3.70;3.40;;;17.80;99.90;;;;;;5073974;28;20222;-72
2023/09/05 02:48:52;;;;;;;4.13;3.83;;;17.70;99.90;;;;;;5074528;28;20166;-72
2023/09/05 02:51:18;;;;;;;4.07;3.70;;;17.70;99.90;;;;;;5074149;28;20616;-72
2023/09/05 02:53:43;;;;;;;3.97;3.67;;;17.70;99.90;;;;;;5073780;28;20188;-72
2023/09/05 02:56:09;;;;;;;4.10;3.53;;;17.70;99.90;;;;;;5074006;28;20201;-71
2023/09/05 02:58:34;;;;;;;3.77;3.47;;;17.70;99.90;;;;;;5073826;28;20174;-71
2023/09/05 03:01:05;;;;;;;3.73;3.50;;;17.70;99.90;;;;;;5073961;28;20219;-72
2023/09/05 03:03:31;;;;;;;4.00;3.70;;;17.70;99.90;;;;;;5073438;28;20182;-72
2023/09/05 03:05:57;;;;;;;3.80;3.40;;;17.70;99.90;;;;;;5073563;28;20212;-72
2023/09/05 03:08:23;;;;;;;3.80;3.50;;;17.60;99.90;;;;;;5073795;28;20193;-72
2023/09/05 03:10:52;;;;;;;3.70;3.40;;;17.60;99.90;;;;;;5073704;28;20170;-72
2023/09/05 03:13:19;;;;;;;3.93;3.57;;;17.60;99.90;;;;;;5073583;28;20171;-72
2023/09/05 03:15:44;;;;;;;3.90;3.40;;;17.60;99.90;;;;;;5073404;28;20343;-72
2023/09/05 03:18:10;;;;;;;5.60;3.50;;;17.60;99.90;;;;;;5073687;28;20256;-72
2023/09/05 03:20:36;;;;;;;3.30;3.10;;;17.60;99.90;;;;;;5073370;28;20182;-72
2023/09/05 03:23:01;;;;;;;6.20;3.60;;;17.60;99.90;;;;;;5073364;28;20181;-72
2023/09/05 03:25:27;;;;;;;3.73;3.43;;;17.60;99.90;;;;;;5073190;28;20316;-72
2023/09/05 03:27:52;;;;;;;3.43;3.23;;;17.50;99.90;;;;;;5073255;28;20179;-72
2023/09/05 03:30:18;;;;;;;3.67;3.37;;;17.60;99.90;;;;;;5073511;28;20309;-72
2023/09/05 03:32:44;;;;;;;4.73;3.60;;;17.60;99.90;;;;;;5072982;28;20745;-72
2023/09/05 03:35:10;;;;;;;3.90;3.43;;;17.60;99.90;;;;;;5073195;28;20251;-72
2023/09/05 03:37:35;;;;;;;3.90;3.60;;;17.60;99.90;;;;;;5073011;28;20268;-72
2023/09/05 03:40:01;;;;;;;4.20;3.80;;;17.50;99.90;;;;;;5072892;28;20181;-72
2023/09/05 03:42:26;;;;;;;3.67;3.40;;;17.50;99.90;;;;;;5072602;28;20201;-72
2023/09/05 03:44:52;;;;;;;4.40;4.00;;;17.50;99.90;;;;;;5073019;28;20304;-72
2023/09/05 03:47:18;;;;;;;4.53;3.63;;;17.60;99.90;;;;;;5072924;28;20170;-72
2023/09/05 03:49:43;;;;;;;4.80;3.73;;;17.60;99.90;;;;;;5072187;28;20620;-72
2023/09/05 03:52:09;;;;;;;3.80;3.40;;;17.50;99.90;;;;;;5072631;28;20186;-73
2023/09/05 03:54:34;;;;;;;3.90;3.37;;;17.60;99.90;;;;;;5072645;28;20212;-73
2023/09/05 03:57:00;;;;;;;3.67;3.30;;;17.60;99.90;;;;;;5071559;28;20665;-73
2023/09/05 03:59:25;;;;;;;3.23;2.93;;;17.60;99.90;;;;;;5072708;28;20206;-72
2023/09/05 04:01:51;;;;;;;3.50;3.20;;;17.60;99.90;;;;;;5072318;28;20170;-73
2023/09/05 04:04:16;;;;;;;3.70;3.40;;;17.60;99.90;;;;;;5071253;28;20733;-73
2023/09/05 04:06:42;;;;;;;5.03;3.57;;;17.60;99.90;;;;;;5072580;28;20182;-73
2023/09/05 04:09:08;;;;;;;3.73;3.43;;;17.60;99.90;;;;;;5071337;28;20178;-73
2023/09/05 04:11:34;;;;;;;4.57;3.83;;;17.50;99.90;;;;;;5072238;28;20232;-73
2023/09/05 04:13:59;;;;;;;3.67;3.37;;;17.50;99.90;;;;;;5072340;28;20180;-73
2023/09/05 04:16:25;;;;;;;4.07;3.77;;;17.40;99.90;;;;;;5072307;28;20253;-73
2023/09/05 04:18:51;;;;;;;3.90;3.60;;;17.40;99.90;;;;;;5072386;28;20546;-73
2023/09/05 04:21:16;;;;;;;5.73;3.63;;;17.40;99.90;;;;;;5072101;28;20636;-73
2023/09/05 04:23:42;;;;;;;4.37;3.50;;;17.40;99.90;;;;;;5072338;28;20585;-73
2023/09/05 04:26:08;;;;;;;3.80;3.40;;;17.40;99.90;;;;;;5072128;28;20320;-73
2023/09/05 04:28:33;;;;;;;3.50;3.30;;;17.40;99.90;;;;;;5072149;28;20166;-72
2023/09/05 04:31:05;;;;;;;3.83;3.53;;;17.40;99.90;;;;;;5072235;28;20224;-73
2023/09/05 04:33:31;;;;;;;4.50;3.67;;;17.40;99.90;;;;;;5071663;28;20640;-73
2023/09/05 04:35:58;;;;;;;4.13;3.73;;;17.40;99.90;;;;;;5072104;28;20244;-73
2023/09/05 04:38:23;;;;;;;5.03;3.67;;;17.40;99.90;;;;;;5072145;28;20174;-73
2023/09/05 04:40:49;;;;;;;4.27;3.70;;;17.40;99.90;;;;;;5072218;28;20174;-72
2023/09/05 04:43:14;;;;;;;3.80;3.50;;;17.40;99.90;;;;;;5072141;28;20735;-73
2023/09/05 04:45:40;;;;;;;3.80;3.50;;;17.40;99.90;;;;;;5071909;28;20488;-73
2023/09/05 04:48:06;;;;;;;4.13;3.80;;;17.30;99.90;;;;;;5072198;28;20162;-72
2023/09/05 04:50:31;;;;;;;4.13;3.70;;;17.30;99.90;;;;;;5071903;28;20238;-73
2023/09/05 04:52:57;;;;;;;6.07;3.93;;;17.30;99.90;;;;;;5071703;28;20255;-73
2023/09/05 04:55:23;;;;;;;4.20;3.80;;;17.30;99.90;;;;;;5071812;28;20189;-73
2023/09/05 04:57:48;;;;;;;4.40;3.43;;;17.30;99.90;;;;;;5072211;28;20213;-73
2023/09/05 05:00:18;;;;;;;4.63;3.83;;;17.30;99.90;;;;;;5071691;28;20193;-72
2023/09/05 05:02:43;;;;;;;3.63;3.30;;;17.30;99.90;;;;;;5070296;28;20577;-73
2023/09/05 05:05:11;;;;;;;3.50;3.20;;;17.30;99.90;;;;;;5071417;28;20293;-73
2023/09/05 05:07:38;;;;;;;4.60;4.10;;;17.30;99.90;;;;;;5071586;28;20223;-72
2023/09/05 05:10:04;;;;;;;3.70;3.23;;;17.40;99.90;;;;;;5071482;28;20170;-72
2023/09/05 05:12:29;;;;;;;7.97;3.97;;;17.40;99.90;;;;;;5071109;28;20220;-72
2023/09/05 05:14:55;;;;;;;3.90;3.60;;;17.40;99.90;;;;;;5071494;28;20692;-72
2023/09/05 05:17:20;;;;;;;3.70;3.20;;;17.50;99.90;;;;;;5071500;28;20188;-73
2023/09/05 05:19:46;;;;;;;4.73;3.80;;;17.50;99.90;;;;;;5071306;28;20201;-73
2023/09/05 05:22:11;;;;;;;5.53;3.67;;;17.50;99.90;;;;;;5071209;28;20251;-72
2023/09/05 05:24:37;;;;;;;3.77;3.47;;;17.60;99.90;;;;;;5071097;28;20323;-71
2023/09/05 05:27:03;;;;;;;3.40;3.10;;;17.70;99.90;;;;;;5071424;28;20174;-73
2023/09/05 05:29:32;;;;;;;3.53;3.23;;;17.70;99.90;;;;;;5071311;28;20585;-72
2023/09/05 05:32:00;;;;;;;3.43;3.20;;;17.80;99.90;;;;;;5070358;28;20640;-73
2023/09/05 05:34:25;;;;;;;3.73;3.40;;;17.80;99.90;;;;;;5071269;28;20197;-73
2023/09/05 05:36:51;;;;;;;4.27;3.50;;;17.90;99.90;;;;;;5071639;28;20169;-72
2023/09/05 05:39:21;;;;;;;4.40;2.93;;;17.90;99.90;;;;;;5071586;28;20174;-72
2023/09/05 05:41:47;;;;;;;3.73;3.43;;;18.00;99.90;;;;;;5071114;28;20193;-73
2023/09/05 05:44:13;;;;;;;4.60;3.77;;;18.00;99.90;;;;;;5071422;28;20198;-70
2023/09/05 05:46:39;;;;;;;44.63;6.10;;;18.10;99.90;;;;;;5071299;28;20209;-72
2023/09/05 05:49:04;;;;;;;3.83;3.23;;;18.10;99.90;;;;;;5071308;28;20656;-72
2023/09/05 05:51:31;;;;;;;4.37;3.77;;;18.20;99.90;;;;;;5071034;28;20593;-72
2023/09/05 05:53:56;;;;;;;4.40;4.10;;;18.30;99.90;;;;;;5070873;28;20191;-72
2023/09/05 05:56:22;;;;;;;4.10;3.70;;;18.30;99.90;;;;;;5071301;28;20213;-71
2023/09/05 05:58:48;;;;;;;3.80;3.30;;;18.40;99.90;;;;;;5071569;28;20609;-71
2023/09/05 06:01:14;;;;;;;6.00;3.30;;;18.50;99.90;;;;;;5071225;28;20257;-71
2023/09/05 06:03:39;;;;;;;4.60;3.10;;;18.60;99.90;;;;;;5070790;28;20201;-72
2023/09/05 06:06:05;;;;;;;3.83;3.33;;;18.70;99.90;;;;;;5070983;28;20589;-72
2023/09/05 06:08:31;;;;;;;4.30;3.10;;;18.80;99.90;;;;;;5071103;28;20170;-72
2023/09/05 06:10:56;;;;;;;3.33;3.03;;;18.90;99.90;;;;;;5071255;28;20257;-72
2023/09/05 06:13:22;;;;;;;3.70;3.00;;;19.00;99.90;;;;;;5072786;28;20662;-72
2023/09/05 06:15:48;;;;;;;3.25;3.05;;;19.20;99.90;;;;;;5074794;28;20273;-72
2023/09/05 06:18:15;;;;;;;3.65;3.35;;;19.60;99.90;;;;;;5075239;28;20228;-72
2023/09/05 06:20:40;;;;;;;4.03;3.72;;;20.10;99.90;;;;;;5076352;28;20597;-72
2023/09/05 06:23:06;;;;;;;3.85;3.50;;;20.70;99.90;;;;;;5074295;28;20174;-73
2023/09/05 06:25:32;;;;;;;5.90;3.60;;;21.30;99.90;;;;;;5074212;28;20247;-72
2023/09/05 06:27:58;;;;;;;3.95;3.03;;;22.00;99.90;;;;;;5074518;28;20167;-73
2023/09/05 06:30:23;;;;;;;3.53;3.22;;;22.50;99.90;;;;;;5074429;28;20201;-73
2023/09/05 06:32:49;;;;;;;3.60;3.30;;;23.00;99.90;;;;;;5072837;28;20599;-73
2023/09/05 06:35:15;;;;;;;5.53;3.60;;;23.50;99.90;;;;;;5074356;28;20232;-72
2023/09/05 06:37:41;;;;;;;5.63;3.80;;;23.90;99.90;;;;;;5074529;28;20201;-72
2023/09/05 06:40:12;;;;;;;4.00;3.60;;;24.20;99.90;;;;;;5074258;28;20251;-72
2023/09/05 06:42:39;;;;;;;3.95;3.50;;;24.40;99.90;;;;;;5073911;28;20282;-71
2023/09/05 06:45:06;;;;;;;2.53;2.33;;;24.70;99.90;;;;;;5074070;28;20335;-73
2023/09/05 06:47:32;;;;;;;3.13;2.85;;;24.90;99.90;;;;;;5074251;28;20725;-72
2023/09/05 06:49:58;;;;;;;4.10;2.97;;;25.10;99.90;;;;;;5074238;28;20205;-72
2023/09/05 06:52:24;;;;;;;3.72;3.42;;;25.30;99.90;;;;;;5073682;28;20170;-72
2023/09/05 06:54:50;;;;;;;6.25;5.85;;;25.20;99.90;;;;;;5074267;28;20229;-73
2023/09/05 06:57:17;;;;;;;5.53;4.00;;;25.10;99.90;;;;;;5074049;28;20224;-72
2023/09/05 06:59:42;;;;;;;5.03;3.92;;;25.20;99.90;;;;;;5073856;28;20228;-72
2023/09/05 07:02:08;;;;;;;3.25;2.80;;;25.30;99.90;;;;;;5073704;28;20599;-73
2023/09/05 07:04:36;;;;;;;3.53;3.22;;;25.50;99.90;;;;;;5073749;28;20297;-73
2023/09/05 07:07:03;;;;;;;6.03;3.63;;;25.50;99.90;;;;;;5073979;28;20644;-72
2023/09/05 07:09:29;;;;;;;4.72;2.97;;;25.70;99.90;;;;;;5073608;28;20184;-72
2023/09/05 07:11:55;;;;;;;4.28;3.13;;;26.00;99.90;;;;;;5073707;28;20632;-72
2023/09/05 07:14:21;;;;;;;4.13;3.72;;;26.20;99.90;;;;;;5072106;28;20198;-72
2023/09/05 07:16:46;;;;;;;4.82;3.90;;;26.10;99.90;;;;;;5073687;28;20412;-72
2023/09/05 07:19:12;;;;;;;4.88;4.57;;;26.10;99.90;;;;;;5073543;28;20174;-72
2023/09/05 07:21:40;;;;;;;6.22;5.05;;;26.40;99.90;;;;;;5073239;28;20235;-73
2023/09/05 07:24:07;;;;;;;5.05;4.75;;;26.50;99.90;;;;;;5071187;28;20182;-72
2023/09/05 07:26:33;;;;;;;4.45;4.05;;;26.60;99.90;;;;;;5073216;28;20288;-73
2023/09/05 07:28:59;;;;;;;7.78;7.28;;;26.70;99.90;;;;;;5073381;28;20707;-72
2023/09/05 07:31:30;;;;;;;8.18;7.57;;;26.90;99.90;;;;;;5073114;28;20166;-72
2023/09/05 07:33:55;;;;;;;4.40;3.78;;;27.00;99.90;;;;;;5072954;28;20169;-72
2023/09/05 07:36:21;;;;;;;4.78;4.38;;;27.10;99.90;;;;;;5073288;28;20174;-72
2023/09/05 07:38:46;;;;;;;4.80;4.50;;;27.10;99.90;;;;;;5073255;28;20204;-73
2023/09/05 07:41:12;;;;;;;4.35;4.07;;;27.00;99.90;;;;;;5072939;28;20678;-73
2023/09/05 07:43:38;;;;;;;4.97;3.65;;;27.00;99.90;;;;;;5073016;28;20181;-73
2023/09/05 07:46:03;;;;;;;6.90;3.08;;;27.20;99.90;;;;;;5072870;28;20212;-73
2023/09/05 07:48:29;;;;;;;3.00;2.80;;;27.30;99.90;;;;;;5072967;28;20178;-73
2023/09/05 07:51:03;;;;;;;4.07;2.88;;;27.60;99.90;;;;;;5073538;28;20189;-72
2023/09/05 07:53:31;;;;;;;4.47;4.18;;;27.90;99.90;;;;;;5073018;28;20274;-72
2023/09/05 07:55:57;;;;;;;4.38;4.07;;;28.20;99.90;;;;;;5072990;28;20193;-72
2023/09/05 07:58:23;;;;;;;3.40;3.00;;;28.30;99.90;;;;;;5071475;28;20300;-73
2023/09/05 08:00:48;;;;;;;2.90;2.70;;;28.40;99.90;;;;;;5073030;28;20580;-71
2023/09/05 08:03:14;;;;;;;3.20;2.90;;;28.50;99.90;;;;;;5072709;28;20581;-75
2023/09/05 08:05:39;;;;;;;3.05;2.85;;;28.40;99.90;;;;;;5072744;28;20229;-74
2023/09/05 08:08:05;;;;;;;4.32;2.90;;;28.40;99.90;;;;;;5072603;28;20229;-76
2023/09/05 08:10:31;;;;;;;4.72;4.35;;;28.30;99.90;;;;;;5072682;28;20174;-73
2023/09/05 08:12:56;;;;;;;3.70;3.33;;;28.20;99.90;;;;;;5072533;28;20256;-73
2023/09/05 08:15:22;;;;;;;3.47;3.17;;;28.10;99.90;;;;;;5072766;28;20221;-73
2023/09/05 08:17:48;;;;;;;3.45;3.05;;;28.10;99.90;;;;;;5072850;28;20587;-73
2023/09/05 08:20:16;;;;;;;3.30;3.00;;;28.20;99.90;;;;;;5072582;28;20166;-72
2023/09/05 08:22:44;;;;;;;3.22;2.80;;;28.40;99.90;;;;;;5072250;28;20170;-73
2023/09/05 08:25:10;;;;;;;5.32;3.58;;;28.40;99.90;;;;;;5072495;28;20566;-74
2023/09/05 08:27:35;;;;;;;7.72;4.35;;;28.40;99.90;;;;;;5072490;28;20169;-73
2023/09/05 08:30:01;;;;;;;4.43;3.92;;;28.60;99.90;;;;;;5072267;28;20166;-74
2023/09/05 08:32:28;;;;;;;4.13;3.42;;;28.60;99.90;;;;;;5072088;28;20193;-71
2023/09/05 08:34:54;;;;;;;4.88;4.05;;;28.70;99.90;;;;;;5072251;28;20194;-73
2023/09/05 08:37:20;;;;;;;3.80;3.45;;;28.70;99.90;;;;;;5072016;28;20490;-73
2023/09/05 08:39:46;;;;;;;3.78;3.47;;;28.80;99.90;;;;;;5072283;28;20174;-73
2023/09/05 08:42:12;;;;;;;5.30;2.97;;;28.80;99.90;;;;;;5071573;28;20190;-73
2023/09/05 08:44:41;;;;;;;3.42;3.08;;;28.80;99.90;;;;;;5071807;28;20732;-72
2023/09/05 08:47:07;;;;;;;6.90;2.80;;;28.80;99.90;;;;;;5072007;28;20166;-72
2023/09/05 08:49:32;;;;;;;3.97;2.95;;;28.80;99.90;;;;;;5071932;28;20178;-72
2023/09/05 08:52:02;;;;;;;3.30;2.97;;;28.90;99.90;;;;;;5071559;28;20174;-72
2023/09/05 08:54:29;;;;;;;3.63;2.47;;;28.90;99.90;;;;;;5071653;28;20186;-71
2023/09/05 08:56:56;;;;;;;3.08;2.88;;;29.20;99.90;;;;;;5071797;28;20169;-72
2023/09/05 08:59:24;;;;;;;3.50;2.80;;;29.30;99.90;;;;;;5072017;28;20550;-73
2023/09/05 09:01:50;;;;;;;3.25;2.95;;;29.40;99.90;;;;;;5071330;28;20170;-71
2023/09/05 09:04:17;;;;;;;5.65;3.20;;;29.40;99.90;;;;;;5071564;28;20182;-73
2023/09/05 09:06:44;;;;;;;5.72;3.05;;;29.50;99.90;;;;;;5071651;28;20201;-76
2023/09/05 09:09:36;;;;;;;4.22;3.10;;;29.60;99.90;;;;;;5071755;28;20162;-72
2023/09/05 09:12:02;;;;;;;3.75;2.55;;;29.70;99.90;;;;;;5071299;28;20170;-71
2023/09/05 09:14:28;;;;;;;3.70;2.85;;;30.00;99.90;;;;;;5071420;28;20186;-73
2023/09/05 09:16:54;;;;;;;3.15;2.65;;;30.20;99.90;;;;;;5071647;28;20212;-72
2023/09/05 09:19:19;;;;;;;4.18;2.88;;;30.50;99.90;;;;;;5071564;28;20169;-72
2023/09/05 09:21:47;;;;;;;4.47;2.53;;;30.60;99.90;;;;;;5071233;28;20320;-72
2023/09/05 09:24:15;;;;;;;2.83;2.63;;;30.70;99.90;;;;;;5071705;28;20181;-75
2023/09/05 09:26:42;;;;;;;4.50;2.60;;;30.80;99.90;;;;;;5071388;28;20194;-74
2023/09/05 09:29:08;;;;;;;4.50;2.95;;;30.70;99.90;;;;;;5071772;28;20174;-73
2023/09/05 09:31:34;;;;;;;2.72;2.53;;;30.70;99.90;;;;;;5071505;28;20170;-73
2023/09/05 09:34:00;;;;;;;3.65;2.88;;;30.60;99.90;;;;;;5071355;28;20513;-72
2023/09/05 09:36:37;;;;;;;5.78;2.70;;;30.50;99.90;;;;;;5071586;28;20167;-73
2023/09/05 09:39:12;;;;;;;3.05;2.80;;;30.60;99.90;;;;;;5071432;28;20168;-72
2023/09/05 09:41:46;;;;;;;4.00;2.97;;;30.70;99.90;;;;;;5070746;28;20693;-73
2023/09/05 09:44:26;;;;;;;2.63;2.40;;;30.70;99.90;;;;;;5071367;28;20212;-73
2023/09/05 09:46:53;;;;;;;2.67;2.47;;;30.70;99.90;;;;;;5071129;28;20710;-73
2023/09/05 09:49:20;;;;;;;3.40;2.85;;;30.80;99.90;;;;;;5074780;28;20174;-74
2023/09/05 09:51:53;;;;;;;4.57;3.00;;;30.80;99.90;;;;;;5074922;28;20162;-72
2023/09/05 09:54:29;;;;;;;3.05;2.78;;;30.80;99.90;;;;;;5075122;28;20197;-73
2023/09/05 09:57:00;;;;;;;4.85;2.63;;;30.60;99.90;;;;;;5075230;28;20223;-73
2023/09/05 09:59:35;;;;;;;2.70;2.50;;;30.70;99.90;;;;;;5073844;28;20174;-72
2023/09/05 10:02:08;;;;;;;3.50;3.20;;;30.90;99.90;;;;;;5074666;28;20265;-73
2023/09/05 10:04:38;;;;;;;4.30;2.40;;;31.10;99.90;;;;;;5074841;28;20208;-73
2023/09/05 10:07:06;;;;;;;3.28;2.72;;;31.20;99.90;;;;;;5074835;28;20166;-73
2023/09/05 10:09:43;;;;;;;3.95;3.22;;;31.20;99.90;;;;;;5074780;28;20258;-72
2023/09/05 10:12:09;;;;;;;3.20;2.83;;;31.10;99.90;;;;;;5074396;28;20204;-73
2023/09/05 10:14:37;;;;;;;3.42;2.63;;;30.90;99.90;;;;;;5074848;28;20182;-73
2023/09/05 10:17:04;;;;;;;2.70;2.50;;;30.90;99.90;;;;;;5074800;28;20197;-71
2023/09/05 10:19:30;;;;;;;4.60;2.60;;;30.80;99.90;;;;;;5074570;28;20166;-72
2023/09/05 10:21:57;;;;;;;3.03;2.83;;;30.70;99.90;;;;;;5074401;28;20232;-73
2023/09/05 10:24:25;;;;;;;2.97;2.67;;;30.70;99.90;;;;;;5074288;28;20734;-72
2023/09/05 10:26:51;;;;;;;3.08;2.80;;;30.50;99.90;;;;;;5074456;28;20558;-73
2023/09/05 10:29:48;;;;;;;4.60;2.85;;;30.30;99.90;;;;;;5074708;28;20276;-75
2023/09/05 10:32:18;;;;;;;3.10;2.80;;;30.10;99.90;;;;;;5074141;28;20162;-73
2023/09/05 10:34:47;;;;;;;2.88;2.67;;;29.90;99.90;;;;;;5074402;28;20205;-72
2023/09/05 10:37:22;;;;;;;4.03;2.83;;;29.80;99.90;;;;;;5074382;28;20257;-72
2023/09/05 10:39:50;;;;;;;3.95;2.50;;;29.90;99.90;;;;;;5074362;28;20162;-71
2023/09/05 10:42:16;;;;;;;3.53;2.85;;;29.90;99.90;;;;;;5073891;28;20186;-72
2023/09/05 10:44:45;;;;;;;3.67;2.75;;;29.90;99.90;;;;;;5074408;28;20190;-74
2023/09/05 10:47:25;;;;;;;3.45;3.17;;;29.80;99.90;;;;;;5074718;28;20343;-71
2023/09/05 10:49:59;;;;;;;5.88;2.70;;;29.70;99.90;;;;;;5074542;28;20379;-72
2023/09/05 10:52:32;;;;;;;4.57;2.88;;;29.80;99.90;;;;;;5073592;28;20166;-73
2023/09/05 10:55:18;;;;;;;4.10;3.05;;;29.90;99.90;;;;;;5074107;28;20201;-71
2023/09/05 10:57:47;;;;;;;3.65;2.70;;;29.80;99.90;;;;;;5074302;28;20597;-71
2023/09/05 11:00:16;;;;;;;3.30;3.00;;;29.90;99.90;;;;;;5072406;28;20174;-70
2023/09/05 11:02:42;;;;;;;2.72;2.53;;;29.80;99.90;;;;;;5073507;28;20210;-69
2023/09/05 11:05:12;;;;;;;3.53;2.70;;;29.70;99.90;;;;;;5073728;28;20570;-72
2023/09/05 11:07:42;;;;;;;3.45;3.15;;;29.70;99.90;;;;;;5073567;28;20174;-72
2023/09/05 11:10:24;;;;;;;3.60;2.60;;;29.70;99.90;;;;;;5073564;28;20182;-72
2023/09/05 11:12:50;;;;;;;3.83;2.58;;;29.80;99.90;;;;;;5073791;28;20196;-71
2023/09/05 11:15:37;;;;;;;2.50;2.30;;;29.90;99.90;;;;;;5073492;28;20654;-72
2023/09/05 11:18:05;;;;;;;3.55;2.72;;;30.00;99.90;;;;;;5073763;28;20166;-73
2023/09/05 11:20:45;;;;;;;2.92;2.58;;;29.90;99.90;;;;;;5073184;28;20646;-72
2023/09/05 11:23:22;;;;;;;3.17;2.88;;;29.90;99.90;;;;;;5073057;28;20201;-71
2023/09/05 11:25:53;;;;;;;2.90;2.70;;;30.00;99.90;;;;;;5073197;28;20213;-72
2023/09/05 11:28:21;;;;;;;3.80;2.80;;;30.00;99.90;;;;;;5073262;28;20535;-72
2023/09/05 11:30:47;;;;;;;2.42;2.22;;;30.10;99.90;;;;;;5073179;28;20174;-71
2023/09/05 11:33:16;;;;;;;2.63;2.42;;;30.10;99.90;;;;;;5072882;28;20170;-72
2023/09/05 11:35:47;;;;;;;2.63;2.42;;;30.20;99.90;;;;;;5073328;28;20684;-71
2023/09/05 11:38:13;;;;;;;5.00;2.60;;;30.10;99.90;;;;;;5072907;28;20177;-72
2023/09/05 11:40:40;;;;;;;2.72;2.53;;;30.10;99.90;;;;;;5072917;28;20189;-72
2023/09/05 11:43:09;;;;;;;2.50;2.30;;;30.20;99.90;;;;;;5072685;28;20174;-73
2023/09/05 11:45:45;;;;;;;3.92;2.30;;;30.10;99.90;;;;;;5072621;28;20264;-72
2023/09/05 11:48:14;;;;;;;2.50;2.30;;;30.30;99.90;;;;;;5072694;28;20312;-72
2023/09/05 11:50:40;;;;;;;4.82;2.47;;;30.30;99.90;;;;;;5072697;28;20538;-72
2023/09/05 11:53:10;;;;;;;3.60;2.30;;;30.40;99.90;;;;;;5072406;28;20171;-73
2023/09/05 11:55:36;;;;;;;3.80;2.70;;;30.50;99.90;;;;;;5072598;28;20194;-73
2023/09/05 11:58:02;;;;;;;3.03;2.75;;;30.60;99.90;;;;;;5072763;28;20520;-71
2023/09/05 12:00:28;;;;;;;2.22;2.13;;;30.50;99.90;;;;;;5072686;28;20182;-72
2023/09/05 12:02:56;;;;;;;2.55;2.35;;;30.40;99.90;;;;;;5072357;28;20648;-73
2023/09/05 12:05:22;;;;;;;3.22;2.60;;;30.40;99.90;;;;;;5072534;28;20584;-72
2023/09/05 12:07:56;;;;;;;2.70;2.10;;;30.50;99.90;;;;;;5072478;28;20170;-72
2023/09/05 12:10:25;;;;;;;2.60;2.40;;;30.70;99.90;;;;;;5071814;28;20180;-72
2023/09/05 12:12:56;;;;;;;2.85;2.10;;;30.70;99.90;;;;;;5072304;28;20232;-72
2023/09/05 12:15:32;;;;;;;2.42;2.22;;;30.70;99.90;;;;;;5072418;28;20197;-72
2023/09/05 12:17:59;;;;;;;3.25;2.70;;;30.90;99.90;;;;;;5072683;28;20177;-71
2023/09/05 12:20:28;;;;;;;3.00;2.72;;;30.90;99.90;;;;;;5072284;28;20538;-72
2023/09/05 12:22:54;;;;;;;3.75;2.47;;;31.00;99.90;;;;;;5071996;28;20166;-71
2023/09/05 12:25:24;;;;;;;2.70;2.50;;;31.10;99.90;;;;;;5072061;28;20544;-72
2023/09/05 12:27:55;;;;;;;2.83;2.63;;;31.20;99.90;;;;;;5072157;28;20162;-73
2023/09/05 12:30:27;;;;;;;3.65;2.53;;;31.30;99.90;;;;;;5071869;28;20162;-72
2023/09/05 12:32:55;;;;;;;3.65;2.63;;;31.40;99.90;;;;;;5071680;28;20166;-71
2023/09/05 12:35:21;;;;;;;3.13;2.75;;;31.40;99.90;;;;;;5071854;28;20292;-73
2023/09/05 12:37:47;;;;;;;3.20;2.45;;;31.50;99.90;;;;;;5071840;28;20675;-71
2023/09/05 12:40:16;;;;;;;2.55;2.35;;;31.80;99.90;;;;;;5071844;28;20667;-73
2023/09/05 12:42:45;;;;;;;2.80;2.47;;;31.80;99.90;;;;;;5071502;28;20232;-72
2023/09/05 12:45:13;;;;;;;2.95;2.15;;;31.90;99.90;;;;;;5071715;28;20687;-72
2023/09/05 12:47:39;;;;;;;2.30;2.20;;;31.90;99.90;;;;;;5071730;28;20583;-72
2023/09/05 12:50:12;;;;;;;3.70;2.35;;;31.90;99.90;;;;;;5070376;28;20590;-73